Time;durP1;ratioP1;P1;durP2;ratioP2;P2;SDS_P1;SDS_P2;PMS_P1;PMS_P2;Temp;Humidity;BMP_temperature;BMP_pressure;BME280_temperature;BME280_humidity;BME280_pressure;Samples;Min_cycle;Max_cycle;Signal;HPM_P1;HPM_P2
2024/01/30 00:00:15;;;;;;;11.60;11.20;;;2.10;99.90;;;;;;4949195;29;20238;-86
2024/01/30 00:02:45;;;;;;;11.33;10.93;;;2.10;99.90;;;;;;4950646;28;20262;-87
2024/01/30 00:05:15;;;;;;;11.80;11.40;;;1.90;99.90;;;;;;4949230;29;20246;-84
2024/01/30 00:07:43;;;;;;;11.80;11.40;;;1.80;99.90;;;;;;4949960;29;20230;-85
2024/01/30 00:10:12;;;;;;;11.53;11.13;;;1.60;99.90;;;;;;4949255;29;20246;-85
2024/01/30 00:12:39;;;;;;;11.63;11.23;;;1.50;99.90;;;;;;4949809;29;20237;-84
2024/01/30 00:15:09;;;;;;;11.53;11.13;;;1.40;99.90;;;;;;4949598;29;20360;-84
2024/01/30 00:17:37;;;;;;;11.73;11.33;;;1.30;99.90;;;;;;4930377;29;20232;-84
2024/01/30 00:20:08;;;;;;;11.43;11.03;;;1.10;99.90;;;;;;4930119;29;20244;-85
2024/01/30 00:22:36;;;;;;;11.40;11.00;;;1.20;99.90;;;;;;4930794;29;20234;-85
2024/01/30 00:25:04;;;;;;;11.60;11.20;;;1.20;99.90;;;;;;4932246;29;20227;-85
2024/01/30 00:27:33;;;;;;;11.70;11.30;;;1.20;99.90;;;;;;4931979;29;20242;-85
2024/01/30 00:30:01;;;;;;;11.43;11.03;;;1.30;99.90;;;;;;4931649;29;20295;-84
2024/01/30 00:32:28;;;;;;;11.60;11.20;;;1.30;99.90;;;;;;4931742;29;20235;-85
2024/01/30 00:34:56;;;;;;;11.77;11.37;;;1.30;99.90;;;;;;4931090;29;20242;-85
2024/01/30 00:37:23;;;;;;;11.57;11.17;;;1.30;99.90;;;;;;4930601;29;20242;-85
2024/01/30 00:39:50;;;;;;;12.00;11.60;;;1.30;99.90;;;;;;4932912;29;20368;-84
2024/01/30 00:42:18;;;;;;;11.70;11.30;;;1.30;99.90;;;;;;4940292;29;20247;-85
2024/01/30 00:44:47;;;;;;;11.73;11.33;;;1.30;99.90;;;;;;4932412;29;20231;-85
2024/01/30 00:47:14;;;;;;;11.70;11.30;;;1.40;99.90;;;;;;4929218;29;20250;-85
2024/01/30 00:49:42;;;;;;;11.40;11.00;;;1.30;99.90;;;;;;4929149;29;20245;-85
2024/01/30 00:52:09;;;;;;;11.37;10.97;;;1.30;99.90;;;;;;4929376;29;20227;-85
2024/01/30 00:54:37;;;;;;;11.50;11.10;;;1.30;99.90;;;;;;4929861;29;20327;-85
2024/01/30 00:57:04;;;;;;;11.50;11.10;;;1.30;99.90;;;;;;4930494;29;20322;-85
2024/01/30 00:59:32;;;;;;;11.80;11.40;;;1.30;99.90;;;;;;4935446;29;20223;-84
2024/01/30 01:02:01;;;;;;;11.70;11.30;;;1.30;99.90;;;;;;4930661;29;20273;-85
2024/01/30 01:04:28;;;;;;;11.47;11.07;;;1.30;99.90;;;;;;4930433;29;20224;-85
2024/01/30 01:06:56;;;;;;;11.60;11.20;;;1.30;99.90;;;;;;4929670;29;20235;-85
2024/01/30 01:09:23;;;;;;;11.70;11.30;;;1.30;99.90;;;;;;4930171;29;20243;-85
2024/01/30 01:11:50;;;;;;;11.63;11.23;;;1.30;99.90;;;;;;4929503;29;20262;-85
2024/01/30 01:14:18;;;;;;;11.43;11.03;;;1.20;99.90;;;;;;4930341;29;20247;-85
2024/01/30 01:16:46;;;;;;;11.70;11.30;;;1.20;99.90;;;;;;4930436;29;20239;-85
2024/01/30 01:19:15;;;;;;;11.70;11.30;;;1.20;99.90;;;;;;4930175;29;20259;-84
2024/01/30 01:21:42;;;;;;;11.57;11.17;;;1.20;99.90;;;;;;4932060;29;20242;-84
2024/01/30 01:24:10;;;;;;;11.77;11.37;;;1.20;99.90;;;;;;4931160;29;20236;-84
2024/01/30 01:26:37;;;;;;;11.60;11.20;;;1.20;99.90;;;;;;4931875;29;20246;-85
2024/01/30 01:29:09;;;;;;;11.60;11.20;;;1.20;99.90;;;;;;4929552;29;20243;-85
2024/01/30 01:31:43;;;;;;;11.50;11.10;;;1.10;99.90;;;;;;4929354;29;20262;-84
2024/01/30 01:34:10;;;;;;;11.70;11.30;;;1.20;99.90;;;;;;4928846;29;20235;-85
2024/01/30 01:36:40;;;;;;;11.50;11.10;;;1.20;99.90;;;;;;4929953;29;20281;-85
2024/01/30 01:39:08;;;;;;;11.40;11.00;;;1.20;99.90;;;;;;4929824;29;20243;-85
2024/01/30 01:41:36;;;;;;;11.30;10.90;;;1.20;99.90;;;;;;4931417;29;20235;-84
2024/01/30 01:44:04;;;;;;;11.40;11.00;;;1.20;99.90;;;;;;4930891;29;20254;-85
2024/01/30 01:46:34;;;;;;;11.50;11.10;;;1.10;99.90;;;;;;4944447;29;20287;-85
2024/01/30 01:49:07;;;;;;;11.53;11.13;;;1.00;99.90;;;;;;4941539;29;20269;-85
2024/01/30 01:51:37;;;;;;;11.77;11.37;;;1.00;99.90;;;;;;4950854;28;20259;-85
2024/01/30 01:54:06;;;;;;;11.60;11.20;;;1.00;99.90;;;;;;4948269;28;20224;-83
2024/01/30 01:56:35;;;;;;;11.27;10.87;;;1.00;99.90;;;;;;4932314;29;20250;-84
2024/01/30 01:59:07;;;;;;;11.37;10.97;;;1.00;99.90;;;;;;4942110;29;20245;-85
2024/01/30 02:01:35;;;;;;;11.60;11.20;;;1.10;99.90;;;;;;4950488;28;20234;-85
2024/01/30 02:04:03;;;;;;;11.30;10.90;;;1.10;99.90;;;;;;4949639;28;20227;-85
2024/01/30 02:06:33;;;;;;;11.50;11.10;;;1.10;99.90;;;;;;4950762;28;20239;-85
2024/01/30 02:09:01;;;;;;;11.57;11.17;;;1.10;99.90;;;;;;4951018;28;20231;-85
2024/01/30 02:11:31;;;;;;;11.47;11.07;;;1.10;99.90;;;;;;4950881;28;20239;-85
2024/01/30 02:13:58;;;;;;;11.67;11.27;;;1.10;99.90;;;;;;4950654;28;20286;-85
2024/01/30 02:16:27;;;;;;;11.60;11.20;;;1.10;99.90;;;;;;4950448;28;20294;-85
2024/01/30 02:18:56;;;;;;;11.87;11.47;;;1.10;99.90;;;;;;4950607;28;20255;-85
2024/01/30 02:21:25;;;;;;;11.67;11.27;;;1.10;99.90;;;;;;4949969;28;20223;-85
2024/01/30 02:23:55;;;;;;;11.47;11.07;;;1.10;99.90;;;;;;4949853;28;20238;-85
2024/01/30 02:26:22;;;;;;;11.37;10.97;;;1.20;99.90;;;;;;4950989;28;20317;-85
2024/01/30 02:28:50;;;;;;;11.03;10.73;;;1.20;99.90;;;;;;4950678;28;20237;-85
2024/01/30 02:31:17;;;;;;;11.30;10.90;;;1.20;99.90;;;;;;4937958;28;20254;-85
2024/01/30 02:33:45;;;;;;;11.43;11.03;;;1.20;99.90;;;;;;4948299;28;20322;-85
2024/01/30 02:36:12;;;;;;;11.37;10.97;;;1.20;99.90;;;;;;4950219;28;20242;-84
2024/01/30 02:38:41;;;;;;;11.37;10.97;;;1.20;99.90;;;;;;4949795;29;20231;-84
2024/01/30 02:41:08;;;;;;;11.30;10.90;;;1.20;99.90;;;;;;4949484;28;20227;-85
2024/01/30 02:43:36;;;;;;;11.30;10.90;;;1.10;99.90;;;;;;4950585;28;20235;-85
2024/01/30 02:46:06;;;;;;;11.33;10.93;;;1.20;99.90;;;;;;4934114;29;20250;-85
2024/01/30 02:48:33;;;;;;;11.20;10.80;;;1.20;99.90;;;;;;4949960;28;20235;-86
2024/01/30 02:51:01;;;;;;;10.60;10.30;;;1.30;99.90;;;;;;4948768;29;20261;-85
2024/01/30 02:53:28;;;;;;;10.87;10.57;;;1.30;99.90;;;;;;4948093;28;20266;-85
2024/01/30 02:55:57;;;;;;;11.43;11.03;;;1.30;99.90;;;;;;4948381;29;20239;-85
2024/01/30 02:58:24;;;;;;;10.97;10.67;;;1.40;99.90;;;;;;4949435;28;20282;-83
2024/01/30 03:00:52;;;;;;;10.93;10.63;;;1.40;99.90;;;;;;4955244;28;20232;-83
2024/01/30 03:03:19;;;;;;;11.30;10.90;;;1.40;99.90;;;;;;4962117;28;20210;-83
2024/01/30 03:05:48;;;;;;;10.97;10.67;;;1.40;99.90;;;;;;4953833;28;20269;-85
2024/01/30 03:08:16;;;;;;;10.93;10.63;;;1.50;99.90;;;;;;4950282;28;20231;-85
2024/01/30 03:10:45;;;;;;;11.10;10.80;;;1.30;99.90;;;;;;4949359;28;20249;-85
2024/01/30 03:13:14;;;;;;;11.00;10.70;;;1.30;99.90;;;;;;4950177;28;20267;-85
2024/01/30 03:15:41;;;;;;;11.30;10.90;;;1.30;99.90;;;;;;4963256;28;20270;-84
2024/01/30 03:18:09;;;;;;;11.03;10.73;;;1.30;99.90;;;;;;4955503;28;20261;-85
2024/01/30 03:20:36;;;;;;;11.30;10.90;;;1.20;99.90;;;;;;4948698;28;20294;-85
2024/01/30 03:23:04;;;;;;;11.63;11.23;;;1.20;99.90;;;;;;4948891;28;20227;-85
2024/01/30 03:25:31;;;;;;;11.90;11.50;;;1.30;99.90;;;;;;4948636;28;20250;-85
2024/01/30 03:27:59;;;;;;;11.90;11.50;;;1.30;99.90;;;;;;4948865;28;20231;-85
2024/01/30 03:30:28;;;;;;;11.37;10.97;;;1.20;99.90;;;;;;4949413;28;20243;-85
2024/01/30 03:32:55;;;;;;;11.80;11.40;;;1.30;99.90;;;;;;4955210;28;20222;-83
2024/01/30 03:35:23;;;;;;;11.67;11.27;;;1.30;99.90;;;;;;4951194;28;20246;-84
2024/01/30 03:37:50;;;;;;;11.67;11.27;;;1.40;99.90;;;;;;4949522;28;20238;-85
2024/01/30 03:40:18;;;;;;;11.60;11.20;;;1.30;99.90;;;;;;4948974;28;20235;-84
2024/01/30 03:42:45;;;;;;;11.90;11.50;;;1.30;99.90;;;;;;4948863;28;20306;-85
2024/01/30 03:45:13;;;;;;;11.60;11.20;;;1.30;99.90;;;;;;4947742;28;20250;-85
2024/01/30 03:47:45;;;;;;;11.77;11.37;;;1.30;99.90;;;;;;4948300;28;20231;-85
2024/01/30 03:50:12;;;;;;;11.67;11.27;;;1.30;99.90;;;;;;4947932;28;20237;-85
2024/01/30 03:52:40;;;;;;;11.37;10.97;;;1.30;99.90;;;;;;4932799;28;20223;-85
2024/01/30 03:55:09;;;;;;;11.80;11.40;;;1.30;99.90;;;;;;4935485;29;20719;-85
2024/01/30 03:57:36;;;;;;;11.70;11.30;;;1.20;99.90;;;;;;4948517;28;20298;-85
2024/01/30 04:00:06;;;;;;;12.00;11.60;;;1.30;99.90;;;;;;4946689;29;20259;-85
2024/01/30 04:02:33;;;;;;;11.90;11.50;;;1.30;99.90;;;;;;4939950;28;20238;-85
2024/01/30 04:05:02;;;;;;;11.80;11.40;;;1.30;99.90;;;;;;4947867;28;20258;-85
2024/01/30 04:07:29;;;;;;;12.10;11.70;;;1.30;99.90;;;;;;4940594;28;20236;-84
2024/01/30 04:09:57;;;;;;;11.80;11.40;;;1.20;99.90;;;;;;4946645;29;20270;-85
2024/01/30 04:12:25;;;;;;;11.87;11.47;;;1.30;99.90;;;;;;4948824;28;20665;-85
2024/01/30 04:14:53;;;;;;;11.77;11.37;;;1.30;99.90;;;;;;4941085;28;20235;-85
2024/01/30 04:17:20;;;;;;;11.90;11.50;;;1.30;99.90;;;;;;4947956;28;20242;-85
2024/01/30 04:19:49;;;;;;;11.77;11.37;;;1.30;99.90;;;;;;4947477;28;20235;-85
2024/01/30 04:22:18;;;;;;;12.37;11.97;;;1.30;99.90;;;;;;4937071;28;20264;-85
2024/01/30 04:24:46;;;;;;;11.57;11.17;;;1.30;99.90;;;;;;4936993;29;20243;-84
2024/01/30 04:27:13;;;;;;;12.10;11.70;;;1.30;99.90;;;;;;4947674;28;20223;-85
2024/01/30 04:29:41;;;;;;;11.73;11.33;;;1.30;99.90;;;;;;4947092;29;20234;-85
2024/01/30 04:32:09;;;;;;;11.73;11.33;;;1.40;99.90;;;;;;4940321;29;20241;-85
2024/01/30 04:34:37;;;;;;;11.50;11.10;;;1.40;99.90;;;;;;4947583;28;20705;-85
2024/01/30 04:37:05;;;;;;;11.70;11.30;;;1.50;99.90;;;;;;4947919;28;20242;-85
2024/01/30 04:39:36;;;;;;;11.63;11.23;;;1.50;99.90;;;;;;4947852;28;20224;-85
2024/01/30 04:42:05;;;;;;;11.63;11.23;;;1.40;99.90;;;;;;4947060;28;20219;-85
2024/01/30 04:44:32;;;;;;;11.60;11.20;;;1.40;99.90;;;;;;4939678;28;20243;-85
2024/01/30 04:47:01;;;;;;;11.63;11.23;;;1.40;99.90;;;;;;4949496;28;20235;-85
2024/01/30 04:49:29;;;;;;;11.30;11.00;;;1.40;99.90;;;;;;4947775;29;20286;-85
2024/01/30 04:51:57;;;;;;;11.67;11.27;;;1.30;99.90;;;;;;4947977;28;20318;-85
2024/01/30 04:54:25;;;;;;;11.33;11.03;;;1.30;99.90;;;;;;4947019;28;20243;-85
2024/01/30 04:56:54;;;;;;;11.50;11.10;;;1.30;99.90;;;;;;4947345;28;20241;-85
2024/01/30 04:59:22;;;;;;;11.77;11.37;;;1.30;99.90;;;;;;4947673;28;20279;-85
2024/01/30 05:01:49;;;;;;;11.27;10.97;;;1.30;99.90;;;;;;4947844;28;20272;-84
2024/01/30 05:04:16;;;;;;;11.30;11.00;;;1.30;99.90;;;;;;4947248;28;20246;-85
2024/01/30 05:06:47;;;;;;;11.70;11.30;;;1.40;99.90;;;;;;4947930;28;20253;-84
2024/01/30 05:09:14;;;;;;;11.37;11.07;;;1.40;99.90;;;;;;4947502;28;20234;-84
2024/01/30 05:11:42;;;;;;;11.70;11.30;;;1.40;99.90;;;;;;4946662;28;20234;-84
2024/01/30 05:14:12;;;;;;;11.43;11.10;;;1.40;99.90;;;;;;4950995;28;20234;-84
2024/01/30 05:16:39;;;;;;;11.40;11.10;;;1.40;99.90;;;;;;4954600;28;20267;-85
2024/01/30 05:19:06;;;;;;;11.40;11.10;;;1.40;99.90;;;;;;4961161;28;20250;-84
2024/01/30 05:21:34;;;;;;;11.40;11.10;;;1.40;99.90;;;;;;4956822;28;20223;-84
2024/01/30 05:24:02;;;;;;;11.40;11.03;;;1.40;99.90;;;;;;4948847;28;20303;-85
2024/01/30 05:26:30;;;;;;;11.60;11.20;;;1.40;99.90;;;;;;4954608;28;20302;-84
2024/01/30 05:28:58;;;;;;;11.23;10.93;;;1.40;99.90;;;;;;4959292;28;20222;-84
2024/01/30 05:31:27;;;;;;;11.30;11.00;;;1.40;99.90;;;;;;4957872;28;20242;-84
2024/01/30 05:33:55;;;;;;;11.77;11.37;;;1.40;99.90;;;;;;4957041;28;20239;-84
2024/01/30 05:36:22;;;;;;;11.63;11.23;;;1.40;99.90;;;;;;4949927;28;20295;-84
2024/01/30 05:38:50;;;;;;;10.70;10.40;;;1.40;99.90;;;;;;4948188;28;20238;-84
2024/01/30 05:41:18;;;;;;;11.40;11.10;;;1.40;99.90;;;;;;4948568;28;20231;-85
2024/01/30 05:43:45;;;;;;;11.40;11.10;;;1.40;99.90;;;;;;4949182;28;20230;-85
2024/01/30 05:46:12;;;;;;;11.27;10.97;;;1.40;99.90;;;;;;4947716;28;20239;-84
2024/01/30 05:48:43;;;;;;;11.30;11.00;;;1.40;99.90;;;;;;4947866;28;20237;-85
2024/01/30 05:51:10;;;;;;;11.37;11.07;;;1.40;99.90;;;;;;4946362;28;20230;-85
2024/01/30 05:53:38;;;;;;;11.00;10.70;;;1.40;99.90;;;;;;4947333;28;20230;-85
2024/01/30 05:56:07;;;;;;;11.00;10.70;;;1.40;99.90;;;;;;4946434;28;20246;-85
2024/01/30 05:58:34;;;;;;;10.90;10.60;;;1.50;99.90;;;;;;4946545;28;20242;-84
2024/01/30 06:01:03;;;;;;;11.20;10.90;;;1.50;99.90;;;;;;4946865;28;20241;-85
2024/01/30 06:03:31;;;;;;;10.70;10.40;;;1.50;99.90;;;;;;4954002;28;20246;-85
2024/01/30 06:06:00;;;;;;;11.00;10.70;;;1.50;99.90;;;;;;4954371;28;20227;-82
2024/01/30 06:08:27;;;;;;;10.73;10.43;;;1.50;99.90;;;;;;4948345;28;20267;-84
2024/01/30 06:10:54;;;;;;;10.57;10.27;;;1.50;99.90;;;;;;4946450;28;20231;-84
2024/01/30 06:13:22;;;;;;;11.10;10.80;;;1.50;99.90;;;;;;4947319;28;20265;-84
2024/01/30 06:15:49;;;;;;;10.97;10.67;;;1.50;99.90;;;;;;4946606;28;20242;-86
2024/01/30 06:20:49;;;;;;;11.10;10.80;;;1.40;99.90;;;;;;4964064;28;20242;-87
2024/01/30 06:23:21;;;;;;;10.80;10.50;;;1.50;99.90;;;;;;4974129;28;20339;-88
2024/01/30 06:25:48;;;;;;;10.60;10.30;;;1.40;99.90;;;;;;4965413;28;20240;-88
2024/01/30 06:28:17;;;;;;;10.67;10.37;;;1.40;99.90;;;;;;4946516;28;21181;-88
2024/01/30 06:30:46;;;;;;;10.60;10.30;;;1.40;99.90;;;;;;4954833;28;20259;-89
2024/01/30 06:33:26;;;;;;;11.00;10.70;;;1.40;99.90;;;;;;4946200;28;20238;-88
2024/01/30 06:35:54;;;;;;;11.30;11.00;;;1.40;99.90;;;;;;4947480;28;20234;-87
2024/01/30 06:38:27;;;;;;;11.37;11.07;;;1.40;99.90;;;;;;4948856;28;20257;-88
2024/01/30 06:40:54;;;;;;;11.07;10.77;;;1.40;99.90;;;;;;4951344;28;20215;-88
2024/01/30 07:05:17;;;;;;;11.60;11.20;;;1.60;99.90;;;;;;4946739;29;20259;-87
2024/01/30 07:07:48;;;;;;;11.00;10.70;;;1.50;99.90;;;;;;4948391;28;20226;-87
2024/01/30 07:14:13;;;;;;;11.03;10.73;;;1.50;99.90;;;;;;4940113;28;20238;-89
2024/01/30 07:24:50;;;;;;;;;;;;;;;;;;;;;
2024/01/30 07:27:36;;;;;;;11.10;10.80;;;1.50;99.90;;;;;;4932750;28;20246;-88
2024/01/30 07:30:12;;;;;;;11.20;10.90;;;1.50;99.90;;;;;;4947494;28;20714;-87
2024/01/30 07:33:08;;;;;;;10.87;10.57;;;1.50;99.90;;;;;;4948600;28;20241;-87
2024/01/30 07:35:39;;;;;;;11.10;10.80;;;1.60;99.90;;;;;;4936932;28;20252;-87
2024/01/30 07:38:10;;;;;;;11.17;10.87;;;1.60;99.90;;;;;;4928003;29;20260;-87
2024/01/30 07:40:49;;;;;;;11.50;11.10;;;1.70;99.90;;;;;;4927817;28;20239;-86
2024/01/30 07:43:45;;;;;;;11.47;11.07;;;1.70;99.90;;;;;;4928846;29;20247;-89
2024/01/30 07:46:21;;;;;;;11.37;10.97;;;1.70;99.90;;;;;;4923865;29;20235;-87
2024/01/30 08:13:48;;;;;;;11.30;10.90;;;2.10;99.90;;;;;;4946386;28;20238;-87
2024/01/30 08:40:37;;;;;;;11.17;10.87;;;2.50;99.90;;;;;;4945102;28;20227;-85
2024/01/30 08:43:08;;;;;;;10.80;10.50;;;2.60;99.90;;;;;;4949147;28;20227;-87
2024/01/30 08:46:03;;;;;;;11.00;10.70;;;2.60;99.90;;;;;;4949127;28;20294;-89
2024/01/30 08:48:33;;;;;;;11.00;10.70;;;2.60;99.90;;;;;;4948603;28;20223;-86
2024/01/30 08:51:08;;;;;;;11.00;10.70;;;2.70;99.90;;;;;;4949504;28;20238;-88
2024/01/30 08:53:57;;;;;;;11.20;10.80;;;2.70;99.90;;;;;;4952328;29;20226;-89
2024/01/30 08:56:28;;;;;;;10.90;10.60;;;2.80;99.90;;;;;;4952258;29;20234;-87
2024/01/30 08:59:05;;;;;;;10.57;10.27;;;2.90;99.90;;;;;;4953726;29;20298;-88
2024/01/30 09:01:34;;;;;;;11.00;10.70;;;2.90;99.90;;;;;;4955522;29;20235;-87
2024/01/30 09:04:05;;;;;;;11.00;10.70;;;3.00;99.90;;;;;;4941575;29;20244;-88
2024/01/30 09:06:34;;;;;;;11.20;10.80;;;3.10;99.90;;;;;;4930342;29;20227;-87
2024/01/30 09:09:06;;;;;;;11.40;11.00;;;3.20;99.90;;;;;;4930041;29;20295;-88
2024/01/30 09:11:33;;;;;;;11.30;10.90;;;3.20;99.90;;;;;;4929944;29;20236;-87
2024/01/30 09:14:01;;;;;;;11.30;10.90;;;3.30;99.90;;;;;;4930142;29;20260;-87
2024/01/30 09:16:34;;;;;;;11.33;10.93;;;3.30;99.90;;;;;;4929490;29;20228;-90
2024/01/30 09:19:01;;;;;;;11.40;11.00;;;3.50;99.90;;;;;;4929783;29;20228;-90
2024/01/30 09:22:20;;;;;;;11.40;11.00;;;3.70;99.90;;;;;;4929023;29;20256;-90
2024/01/30 09:28:06;;;;;;;11.10;10.80;;;4.30;99.90;;;;;;4935010;28;20243;-88
2024/01/30 09:30:37;;;;;;;11.10;10.80;;;4.50;99.90;;;;;;4933058;29;20283;-89
2024/01/30 09:33:14;;;;;;;11.00;10.70;;;4.60;99.90;;;;;;4932001;29;20299;-89
2024/01/30 09:38:40;;;;;;;11.33;10.93;;;4.80;99.90;;;;;;4928358;29;20223;-89
2024/01/30 09:44:12;;;;;;;10.80;10.50;;;4.70;99.90;;;;;;4928759;29;20232;-87
2024/01/30 09:46:42;;;;;;;11.37;10.97;;;4.70;99.90;;;;;;4928549;29;20242;-87
2024/01/30 09:49:11;;;;;;;10.90;10.60;;;4.60;99.90;;;;;;4927718;29;20236;-89
2024/01/30 09:51:52;;;;;;;11.43;11.03;;;4.70;99.90;;;;;;4928262;29;20236;-89
2024/01/30 09:54:21;;;;;;;11.20;10.90;;;4.70;99.90;;;;;;4927501;29;20262;-88
2024/01/30 09:56:51;;;;;;;11.10;10.80;;;4.80;99.90;;;;;;4933786;29;20260;-88
2024/01/30 09:59:46;;;;;;;11.23;10.87;;;4.90;99.90;;;;;;4939024;29;20295;-88
2024/01/30 10:05:18;;;;;;;11.13;10.83;;;5.10;99.90;;;;;;4929866;28;20228;-90
2024/01/30 10:08:39;;;;;;;11.50;11.10;;;5.20;99.90;;;;;;4929663;29;20243;-90
2024/01/30 10:11:19;;;;;;;11.10;10.80;;;5.20;99.90;;;;;;4930732;29;20251;-89
2024/01/30 10:13:50;;;;;;;11.20;10.90;;;5.30;99.90;;;;;;4931659;29;20239;-88
2024/01/30 10:16:18;;;;;;;11.20;10.90;;;5.40;99.90;;;;;;4931992;29;20235;-88
2024/01/30 10:18:58;;;;;;;11.23;10.93;;;5.40;99.90;;;;;;4932081;29;20326;-89
2024/01/30 10:21:27;;;;;;;11.03;10.73;;;5.50;99.90;;;;;;4931614;29;20254;-88
2024/01/30 10:26:53;;;;;;;11.33;10.93;;;5.70;99.90;;;;;;4932181;28;20223;-89
2024/01/30 10:29:24;;;;;;;11.03;10.73;;;5.90;99.90;;;;;;4931155;29;20271;-87
2024/01/30 10:32:09;;;;;;;11.33;10.93;;;5.90;99.90;;;;;;4931647;29;20236;-88
2024/01/30 10:34:39;;;;;;;11.07;10.77;;;6.00;99.90;;;;;;4937608;29;20307;-87
2024/01/30 10:42:44;;;;;;;11.00;10.70;;;6.00;99.90;;;;;;4950608;28;20227;-88
2024/01/30 10:45:29;;;;;;;11.10;10.80;;;6.00;99.90;;;;;;4950122;28;20283;-88
2024/01/30 10:48:17;;;;;;;11.07;10.77;;;6.00;99.90;;;;;;4948968;28;20241;-89
2024/01/30 10:50:54;;;;;;;11.60;11.20;;;6.00;99.90;;;;;;4950061;28;20231;-89
2024/01/30 10:53:23;;;;;;;11.07;10.77;;;6.10;99.90;;;;;;4951139;28;20235;-89
2024/01/30 10:59:27;;;;;;;10.87;10.57;;;6.20;99.90;;;;;;4950865;29;20227;-88
2024/01/30 11:02:03;;;;;;;11.07;10.77;;;6.30;99.90;;;;;;4949618;28;20323;-88
2024/01/30 11:07:53;;;;;;;11.47;11.07;;;6.40;99.90;;;;;;4950008;28;20227;-88
2024/01/30 11:10:33;;;;;;;11.33;10.93;;;6.40;99.90;;;;;;4949724;28;20241;-87
2024/01/30 11:13:02;;;;;;;11.33;10.93;;;6.40;99.90;;;;;;4930395;29;20259;-87
2024/01/30 11:15:31;;;;;;;11.10;10.80;;;6.40;99.90;;;;;;4930463;29;20244;-88
2024/01/30 11:18:03;;;;;;;10.97;10.67;;;6.40;99.90;;;;;;4930623;29;20220;-87
2024/01/30 11:20:54;;;;;;;10.93;10.63;;;6.50;99.90;;;;;;4934407;29;20245;-89
2024/01/30 11:23:26;;;;;;;10.90;10.60;;;6.60;99.90;;;;;;4949290;28;20274;-87
2024/01/30 11:25:57;;;;;;;10.90;10.60;;;6.80;99.90;;;;;;4950245;28;20231;-88
2024/01/30 11:28:26;;;;;;;11.10;10.77;;;6.90;99.90;;;;;;4950450;28;20804;-88
2024/01/30 11:31:07;;;;;;;10.70;10.40;;;7.20;99.90;;;;;;4950826;28;20245;-88
2024/01/30 11:33:42;;;;;;;10.87;10.57;;;7.30;99.90;;;;;;4949889;28;20231;-89
2024/01/30 11:41:57;;;;;;;10.90;10.60;;;7.70;99.90;;;;;;4949080;28;20321;-89
2024/01/30 11:50:40;;;;;;;11.03;10.73;;;8.20;99.90;;;;;;4948943;28;20235;-89
2024/01/30 11:53:22;;;;;;;11.60;11.20;;;8.20;99.90;;;;;;4949649;29;20245;-90
2024/01/30 11:58:35;;;;;;;11.10;10.80;;;8.40;99.90;;;;;;4949085;28;20286;-89
2024/01/30 12:01:05;;;;;;;11.00;10.70;;;8.50;99.90;;;;;;4961449;28;20256;-91
2024/01/30 12:03:57;;;;;;;;;;;;;;;;;;;;;
2024/01/30 12:21:02;;;;;;;11.10;10.80;;;9.00;99.90;;;;;;4957460;23;20239;-82
2024/01/30 12:23:29;;;;;;;10.80;10.50;;;9.20;99.90;;;;;;4957244;28;20227;-83
2024/01/30 12:25:59;;;;;;;11.13;10.83;;;9.40;99.90;;;;;;4945237;28;20234;-84
2024/01/30 12:28:33;;;;;;;11.17;10.83;;;9.40;99.90;;;;;;4950579;28;20255;-83
2024/01/30 12:31:08;;;;;;;10.97;10.67;;;9.50;99.90;;;;;;4950142;28;20238;-83
2024/01/30 12:33:38;;;;;;;10.90;10.60;;;9.40;99.90;;;;;;4949149;29;20237;-83
2024/01/30 12:36:09;;;;;;;11.17;10.80;;;9.40;99.90;;;;;;4948757;28;20222;-84
2024/01/30 12:38:40;;;;;;;11.20;10.80;;;9.40;99.90;;;;;;4950208;28;20333;-82
2024/01/30 12:41:12;;;;;;;11.17;10.80;;;9.40;99.90;;;;;;4948786;28;20245;-83
2024/01/30 12:43:47;;;;;;;10.97;10.67;;;9.40;99.90;;;;;;4948531;28;20230;-84
2024/01/30 12:46:16;;;;;;;11.23;10.83;;;9.50;99.90;;;;;;4949430;28;20230;-83
2024/01/30 12:48:44;;;;;;;10.90;10.60;;;9.60;99.90;;;;;;4952718;28;20263;-82
2024/01/30 12:51:20;;;;;;;11.30;10.90;;;9.70;99.90;;;;;;4952367;28;20234;-90
2024/01/30 12:54:18;;;;;;;11.13;10.73;;;9.80;99.90;;;;;;4928875;29;20253;-88
2024/01/30 12:57:19;;;;;;;11.27;10.87;;;9.90;99.90;;;;;;4929950;29;20231;-86
2024/01/30 13:00:34;;;;;;;11.57;11.17;;;9.90;99.90;;;;;;4935393;29;20242;-86
2024/01/30 13:03:38;;;;;;;11.50;11.10;;;10.00;99.90;;;;;;4927821;28;20242;-85
2024/01/30 13:31:12;;;;;;;10.73;10.43;;;11.30;99.90;;;;;;4884572;29;20239;-86
2024/01/30 13:34:21;;;;;;;10.90;10.60;;;11.30;99.90;;;;;;4908831;29;20247;-87
2024/01/30 13:37:00;;;;;;;11.10;10.80;;;11.20;99.90;;;;;;4908592;29;20224;-85
2024/01/30 13:43:14;;;;;;;11.10;10.80;;;10.90;99.90;;;;;;4862342;29;20299;-83
2024/01/30 13:45:47;;;;;;;11.00;10.70;;;10.60;99.90;;;;;;4941554;28;20230;-84
2024/01/30 13:48:18;;;;;;;11.60;11.20;;;10.50;99.90;;;;;;4951586;28;20225;-84
2024/01/30 13:50:47;;;;;;;11.00;10.70;;;10.70;99.90;;;;;;4951590;28;20247;-82
2024/01/30 13:53:15;;;;;;;10.87;10.57;;;10.90;99.90;;;;;;4953215;29;20238;-84
2024/01/30 13:56:08;;;;;;;10.83;10.53;;;11.10;99.90;;;;;;4952839;28;20219;-83
2024/01/30 13:58:43;;;;;;;11.00;10.70;;;11.10;99.90;;;;;;4954368;28;20279;-86
2024/01/30 14:01:14;;;;;;;10.70;10.40;;;11.20;99.90;;;;;;4956660;28;20249;-84
2024/01/30 14:03:45;;;;;;;10.90;10.60;;;11.10;99.90;;;;;;4949705;28;20235;-86
2024/01/30 14:06:15;;;;;;;10.87;10.57;;;11.00;99.90;;;;;;4948282;28;20239;-84
2024/01/30 14:08:43;;;;;;;10.77;10.47;;;10.90;99.90;;;;;;4949524;28;20237;-86
2024/01/30 14:11:11;;;;;;;10.90;10.60;;;10.70;99.90;;;;;;4949582;28;20286;-84
2024/01/30 14:13:52;;;;;;;10.70;10.40;;;10.60;99.90;;;;;;4948932;28;20243;-85
2024/01/30 14:16:20;;;;;;;10.60;10.30;;;10.50;99.90;;;;;;4948079;28;20250;-83
2024/01/30 14:18:58;;;;;;;10.30;10.00;;;10.40;99.90;;;;;;4946879;28;20306;-84
2024/01/30 14:21:26;;;;;;;10.03;9.73;;;10.40;99.90;;;;;;4946739;28;20258;-85
2024/01/30 14:24:08;;;;;;;10.17;9.87;;;10.20;99.90;;;;;;4947392;29;20239;-86
2024/01/30 14:26:48;;;;;;;;;;;;;;;;;;;;;
2024/01/30 14:29:21;;;;;;;10.27;9.97;;;10.10;99.90;;;;;;4961739;28;20328;-86
2024/01/30 14:31:57;;;;;;;10.23;9.93;;;10.00;99.90;;;;;;4947361;28;20222;-85
2024/01/30 14:35:37;;;;;;;9.90;9.60;;;10.10;99.90;;;;;;4948554;28;20241;-86
2024/01/30 14:45:23;;;;;;;9.53;9.23;;;10.20;99.90;;;;;;4763377;29;20242;-86
2024/01/30 14:58:49;;;;;;;10.00;9.70;;;10.30;99.90;;;;;;4887075;28;20242;-85
2024/01/30 15:01:37;;;;;;;9.80;9.50;;;10.20;99.90;;;;;;4962309;28;20222;-84
2024/01/30 15:04:18;;;;;;;9.90;9.60;;;10.40;99.90;;;;;;4962698;28;20219;-83
2024/01/30 15:10:43;;;;;;;9.80;9.50;;;10.40;99.90;;;;;;4891087;29;20285;-84
2024/01/30 15:17:01;;;;;;;9.43;9.13;;;10.30;99.90;;;;;;4948251;28;20306;-84
2024/01/30 15:22:48;;;;;;;9.80;9.50;;;10.00;99.90;;;;;;4951330;28;20214;-83
2024/01/30 15:26:04;;;;;;;8.90;8.70;;;9.90;99.90;;;;;;4963471;28;20229;-84
2024/01/30 15:29:15;;;;;;;8.80;8.60;;;9.90;99.90;;;;;;4950801;28;20292;-85
2024/01/30 15:32:32;;;;;;;8.87;8.67;;;9.70;99.90;;;;;;4885275;29;20229;-84
2024/01/30 15:39:21;;;;;;;8.70;8.50;;;9.40;99.90;;;;;;4765530;30;20241;-84
2024/01/30 15:49:23;;;;;;;9.13;8.90;;;9.20;99.90;;;;;;4920653;29;20224;-88
2024/01/30 15:52:24;;;;;;;;;;;;;;;;;;;;;
2024/01/30 15:55:33;;;;;;;9.07;8.87;;;9.10;99.90;;;;;;4886352;29;20239;-87
2024/01/30 16:02:19;;;;;;;9.50;9.20;;;8.90;99.90;;;;;;4859922;29;20226;-84
2024/01/30 16:04:57;;;;;;;9.60;9.30;;;8.80;99.90;;;;;;4864442;29;20238;-85
2024/01/30 16:21:00;;;;;;;9.70;9.40;;;8.60;99.90;;;;;;4867894;29;20252;-86
2024/01/30 16:23:37;;;;;;;9.33;9.03;;;8.60;99.90;;;;;;4874546;29;20289;-86
2024/01/30 16:26:06;;;;;;;8.77;8.57;;;8.50;99.90;;;;;;4875506;29;20248;-87
2024/01/30 16:28:40;;;;;;;8.57;8.37;;;8.50;99.90;;;;;;4874213;29;20324;-87
2024/01/30 16:31:18;;;;;;;8.00;7.80;;;8.50;99.90;;;;;;4873929;29;20237;-87
2024/01/30 16:33:59;;;;;;;8.30;8.10;;;8.50;99.90;;;;;;4873898;29;20237;-87
2024/01/30 16:36:30;;;;;;;8.37;8.17;;;8.40;99.90;;;;;;4874715;29;20295;-88
2024/01/30 16:38:59;;;;;;;8.63;8.43;;;8.40;99.90;;;;;;4874790;29;20249;-88
2024/01/30 16:41:36;;;;;;;8.80;8.60;;;8.30;99.90;;;;;;4873840;29;20298;-88
2024/01/30 16:44:11;;;;;;;8.80;8.60;;;8.20;99.90;;;;;;4875356;29;20218;-88
2024/01/30 16:46:43;;;;;;;9.10;8.90;;;8.20;99.90;;;;;;4873894;29;20429;-86
2024/01/30 16:49:47;;;;;;;8.80;8.60;;;8.20;99.90;;;;;;4874111;29;20249;-86
2024/01/30 16:52:14;;;;;;;8.40;8.20;;;8.20;99.90;;;;;;4873448;29;20401;-84
2024/01/30 16:54:42;;;;;;;8.77;8.57;;;8.10;99.90;;;;;;4875540;29;20221;-81
2024/01/30 16:57:13;;;;;;;8.90;8.70;;;8.10;99.90;;;;;;4883237;29;20243;-88
2024/01/30 16:59:42;;;;;;;8.90;8.70;;;8.10;99.90;;;;;;4897172;29;20245;-85